Time;durP1;ratioP1;P1;durP2;ratioP2;P2;SDS_P1;SDS_P2;PMS_P1;PMS_P2;Temp;Humidity;BMP_temperature;BMP_pressure;BME280_temperature;BME280_humidity;BME280_pressure;Samples;Min_cycle;Max_cycle;Signal;HPM_P1;HPM_P2
2022/08/18 00:00:26;;;;;;;12.25;2.75;;;19.40;99.90;;;;;;4213325;28;20066;-84
2022/08/18 00:02:29;;;;;;;8.30;2.90;;;19.40;99.90;;;;;;4231371;28;20082;-83
2022/08/18 00:04:31;;;;;;;12.00;2.90;;;19.40;99.90;;;;;;4231294;28;20079;-83
2022/08/18 00:06:32;;;;;;;12.95;3.60;;;19.40;99.90;;;;;;4213550;28;20158;-83
2022/08/18 00:08:33;;;;;;;6.63;2.95;;;19.40;99.90;;;;;;4212907;28;20048;-83
2022/08/18 00:10:34;;;;;;;12.55;3.45;;;19.30;99.90;;;;;;4230665;28;20055;-83
2022/08/18 00:12:40;;;;;;;8.45;2.95;;;19.30;99.90;;;;;;4212654;28;20044;-83
2022/08/18 00:14:42;;;;;;;11.93;3.10;;;19.20;99.90;;;;;;4196482;28;20056;-82
2022/08/18 00:16:43;;;;;;;8.23;3.88;;;19.20;99.90;;;;;;4230325;28;20051;-83
2022/08/18 00:18:44;;;;;;;8.35;3.20;;;19.20;99.90;;;;;;4230948;28;20122;-83
2022/08/18 00:20:45;;;;;;;9.65;3.20;;;19.20;99.90;;;;;;4231271;28;20055;-83
2022/08/18 00:22:46;;;;;;;15.27;3.25;;;19.20;99.90;;;;;;4231073;28;20036;-83
2022/08/18 00:24:52;;;;;;;14.13;2.97;;;19.20;99.90;;;;;;4214626;28;20115;-82
2022/08/18 00:26:53;;;;;;;8.40;2.72;;;19.20;99.90;;;;;;4234470;28;20079;-83
2022/08/18 00:28:55;;;;;;;14.13;3.38;;;19.20;99.90;;;;;;4216199;28;20133;-83
2022/08/18 00:30:56;;;;;;;8.95;2.97;;;19.20;99.90;;;;;;4234493;28;20040;-83
2022/08/18 00:32:58;;;;;;;8.93;2.72;;;19.20;99.90;;;;;;4249870;27;20103;-83
2022/08/18 00:35:12;;;;;;;14.93;3.20;;;19.20;99.90;;;;;;4234263;28;20389;-83
2022/08/18 00:37:13;;;;;;;12.32;3.30;;;19.20;99.90;;;;;;4234607;28;20043;-82
2022/08/18 00:39:15;;;;;;;6.82;3.20;;;19.20;99.90;;;;;;4234578;28;20097;-83
2022/08/18 00:41:16;;;;;;;12.18;3.58;;;19.20;99.90;;;;;;4234549;28;20040;-82
2022/08/18 00:43:25;;;;;;;8.02;3.10;;;19.20;99.90;;;;;;4234159;28;20039;-82
2022/08/18 00:45:35;;;;;;;10.25;3.63;;;19.20;99.90;;;;;;4236396;27;20070;-82
2022/08/18 00:47:35;;;;;;;20.92;4.28;;;19.10;99.90;;;;;;4266992;27;20050;-82
2022/08/18 00:49:40;;;;;;;11.13;3.10;;;19.20;99.90;;;;;;4233039;28;20577;-82
2022/08/18 00:51:46;;;;;;;9.90;3.10;;;19.10;99.90;;;;;;4251039;27;20052;-82
2022/08/18 00:53:55;;;;;;;10.68;3.33;;;19.10;99.90;;;;;;4233278;28;20055;-82
2022/08/18 00:56:05;;;;;;;7.93;2.63;;;19.10;99.90;;;;;;4250929;27;20043;-82
2022/08/18 00:58:14;;;;;;;8.32;2.88;;;19.10;99.90;;;;;;4251228;27;20487;-82
2022/08/18 01:00:15;;;;;;;6.90;2.97;;;19.10;99.90;;;;;;4251367;27;20043;-82
2022/08/18 01:02:25;;;;;;;10.63;3.22;;;19.10;99.90;;;;;;4232837;28;20043;-82
2022/08/18 01:04:36;;;;;;;9.88;2.80;;;19.10;99.90;;;;;;4250494;27;20047;-82
2022/08/18 01:06:50;;;;;;;13.95;3.97;;;19.10;99.90;;;;;;4232590;28;20574;-82
2022/08/18 01:08:51;;;;;;;10.98;3.80;;;19.10;99.90;;;;;;4251107;27;20109;-82
2022/08/18 01:10:53;;;;;;;20.48;4.35;;;19.10;99.90;;;;;;4232128;28;20044;-82
2022/08/18 01:12:55;;;;;;;14.32;3.97;;;19.10;99.90;;;;;;4250351;27;20043;-82
2022/08/18 01:14:57;;;;;;;11.13;3.58;;;19.10;99.90;;;;;;4250673;27;20503;-82
2022/08/18 01:21:51;;;;;;;8.70;2.83;;;19.00;99.90;;;;;;4250416;27;20074;-83
2022/08/18 01:23:54;;;;;;;17.20;3.45;;;19.00;99.90;;;;;;4250961;27;20055;-82
2022/08/18 01:26:03;;;;;;;12.63;3.22;;;19.10;99.90;;;;;;4232365;28;20048;-82
2022/08/18 01:28:04;;;;;;;13.45;3.05;;;19.00;99.90;;;;;;4232405;28;20078;-82
2022/08/18 01:30:09;;;;;;;13.50;3.97;;;19.10;99.90;;;;;;4250675;27;20083;-82
2022/08/18 01:32:11;;;;;;;10.55;3.78;;;19.10;99.90;;;;;;4232406;28;20048;-82
2022/08/18 01:34:12;;;;;;;11.93;3.85;;;19.10;99.90;;;;;;4232351;28;20051;-82
2022/08/18 01:36:19;;;;;;;12.30;3.38;;;19.00;99.90;;;;;;4231205;28;20435;-83
2022/08/18 01:38:21;;;;;;;14.07;3.88;;;19.00;99.90;;;;;;4231825;28;20426;-82
2022/08/18 01:40:23;;;;;;;8.68;3.40;;;19.00;99.90;;;;;;4250561;27;20499;-83
2022/08/18 01:42:24;;;;;;;17.48;3.90;;;19.10;99.90;;;;;;4250442;27;20046;-83
2022/08/18 01:44:25;;;;;;;11.43;3.97;;;19.00;99.90;;;;;;4232165;28;20050;-82
2022/08/18 01:46:30;;;;;;;13.32;3.75;;;19.00;99.90;;;;;;4238841;27;20128;-82
2022/08/18 01:48:35;;;;;;;12.80;4.85;;;19.10;99.90;;;;;;4233661;28;20066;-82
2022/08/18 01:50:38;;;;;;;15.70;3.25;;;19.00;99.90;;;;;;4215190;28;20516;-82
2022/08/18 01:52:39;;;;;;;13.85;4.20;;;19.00;99.90;;;;;;4231624;28;20047;-82
2022/08/18 01:54:41;;;;;;;15.52;4.78;;;19.00;99.90;;;;;;4233203;28;20044;-82
2022/08/18 01:56:42;;;;;;;15.93;4.07;;;19.00;99.90;;;;;;4232386;28;20046;-82
2022/08/18 01:58:44;;;;;;;14.45;3.90;;;19.00;99.90;;;;;;4248743;27;20047;-82
2022/08/18 02:00:45;;;;;;;15.50;3.65;;;19.00;99.90;;;;;;4233102;28;20039;-82
2022/08/18 02:02:47;;;;;;;14.10;4.10;;;19.10;99.90;;;;;;4232460;28;20036;-82
2022/08/18 02:04:50;;;;;;;19.20;3.95;;;19.10;99.90;;;;;;4232406;28;20061;-82
2022/08/18 02:06:51;;;;;;;9.77;5.18;;;19.10;99.90;;;;;;4232035;28;20085;-82
2022/08/18 02:08:51;;;;;;;14.30;4.43;;;19.10;99.90;;;;;;4232425;28;20561;-82
2022/08/18 02:10:52;;;;;;;13.82;4.80;;;19.20;99.90;;;;;;4231458;28;20054;-81
2022/08/18 02:12:53;;;;;;;9.48;3.05;;;19.10;99.90;;;;;;4232170;28;20476;-83
2022/08/18 02:14:54;;;;;;;14.65;3.78;;;18.80;99.90;;;;;;4232330;28;20047;-82
2022/08/18 02:16:56;;;;;;;11.80;4.22;;;19.10;99.90;;;;;;4213607;28;20044;-82
2022/08/18 02:18:59;;;;;;;9.45;4.43;;;19.20;99.90;;;;;;4220480;27;20052;-83
2022/08/18 02:21:07;;;;;;;10.68;3.33;;;19.20;99.90;;;;;;4250215;27;20050;-82
2022/08/18 02:23:10;;;;;;;12.85;4.20;;;19.20;99.90;;;;;;4249423;27;20039;-82
2022/08/18 02:25:12;;;;;;;18.27;4.43;;;19.20;99.90;;;;;;4249933;27;20136;-82
2022/08/18 02:27:14;;;;;;;15.27;4.22;;;19.20;99.90;;;;;;4249734;27;20061;-82
2022/08/18 02:29:14;;;;;;;11.73;3.70;;;19.20;99.90;;;;;;4249609;27;20122;-82
2022/08/18 02:31:19;;;;;;;17.52;5.47;;;19.20;99.90;;;;;;4231590;28;20055;-82
2022/08/18 02:33:20;;;;;;;13.23;3.97;;;19.20;99.90;;;;;;4249843;27;20055;-82
2022/08/18 02:35:20;;;;;;;11.60;3.40;;;19.20;99.90;;;;;;4248885;27;20079;-82
2022/08/18 02:37:21;;;;;;;10.30;3.58;;;19.20;99.90;;;;;;4249809;27;20039;-82
2022/08/18 02:39:22;;;;;;;10.68;3.58;;;19.20;99.90;;;;;;4249540;27;20050;-82
2022/08/18 02:41:24;;;;;;;14.23;3.60;;;19.20;99.90;;;;;;4249200;27;20515;-82
2022/08/18 02:43:27;;;;;;;11.63;3.17;;;19.20;99.90;;;;;;4249067;27;20058;-82
2022/08/18 02:45:28;;;;;;;10.38;3.85;;;19.20;99.90;;;;;;4249216;27;20046;-82
2022/08/18 02:47:28;;;;;;;19.83;3.83;;;19.20;99.90;;;;;;4249129;27;20411;-82
2022/08/18 02:49:29;;;;;;;13.38;4.03;;;19.20;99.90;;;;;;4249255;27;20043;-82
2022/08/18 02:51:30;;;;;;;11.57;2.95;;;19.20;99.90;;;;;;4230844;28;20552;-83
2022/08/18 02:53:31;;;;;;;9.45;2.85;;;19.10;99.90;;;;;;4248810;27;20078;-82
2022/08/18 02:55:32;;;;;;;12.10;3.65;;;19.10;99.90;;;;;;4249171;27;20090;-82
2022/08/18 02:57:32;;;;;;;12.07;3.55;;;19.20;99.90;;;;;;4248322;27;20047;-83
2022/08/18 02:59:33;;;;;;;14.88;3.40;;;19.20;99.90;;;;;;4248981;27;20458;-83
2022/08/18 03:01:38;;;;;;;16.05;3.65;;;19.20;99.90;;;;;;4248717;27;20508;-83
2022/08/18 03:03:39;;;;;;;11.45;3.10;;;19.20;99.90;;;;;;4249142;27;20422;-82
2022/08/18 03:05:39;;;;;;;12.27;3.42;;;19.20;99.90;;;;;;4248786;27;20043;-82
2022/08/18 03:07:40;;;;;;;16.58;3.40;;;19.20;99.90;;;;;;4248556;27;20395;-83
2022/08/18 03:09:41;;;;;;;18.25;3.67;;;19.20;99.90;;;;;;4248801;27;20395;-83
2022/08/18 03:11:43;;;;;;;11.05;3.67;;;19.20;99.90;;;;;;4248247;27;20075;-83
2022/08/18 03:13:44;;;;;;;10.70;3.85;;;19.20;99.90;;;;;;4232272;28;20047;-83
2022/08/18 03:15:46;;;;;;;13.60;3.70;;;19.20;99.90;;;;;;4214043;28;20480;-83
2022/08/18 03:17:46;;;;;;;11.10;3.85;;;19.20;99.90;;;;;;4232001;28;20035;-83
2022/08/18 03:19:47;;;;;;;11.32;3.75;;;19.10;99.90;;;;;;4247474;27;20050;-82
2022/08/18 03:21:48;;;;;;;14.55;3.85;;;19.10;99.90;;;;;;4231575;28;20036;-83
2022/08/18 03:23:50;;;;;;;20.63;3.90;;;19.10;99.90;;;;;;4231928;28;20079;-83
2022/08/18 03:25:51;;;;;;;13.68;3.65;;;19.10;99.90;;;;;;4231756;28;20381;-83
2022/08/18 03:27:51;;;;;;;16.02;5.35;;;19.10;99.90;;;;;;4231774;28;20042;-83
2022/08/18 03:29:52;;;;;;;16.52;3.92;;;19.10;99.90;;;;;;4231341;28;20112;-83
2022/08/18 03:31:53;;;;;;;9.95;3.67;;;19.10;99.90;;;;;;4247740;27;20035;-82
2022/08/18 03:33:56;;;;;;;9.70;3.72;;;19.10;99.90;;;;;;4231779;28;20119;-82
2022/08/18 03:36:04;;;;;;;13.00;3.88;;;19.10;99.90;;;;;;4213644;28;20500;-83
2022/08/18 03:38:04;;;;;;;15.10;4.00;;;19.10;99.90;;;;;;4196911;28;20071;-82
2022/08/18 03:40:06;;;;;;;13.25;4.05;;;19.10;99.90;;;;;;4231651;28;20426;-82
2022/08/18 03:42:07;;;;;;;13.95;4.20;;;19.10;99.90;;;;;;4231934;28;20049;-82
2022/08/18 03:44:09;;;;;;;18.95;4.18;;;19.10;99.90;;;;;;4230801;28;20126;-82
2022/08/18 03:46:13;;;;;;;13.50;4.93;;;19.10;99.90;;;;;;4231401;28;20391;-82
2022/08/18 03:48:13;;;;;;;11.60;4.68;;;19.10;99.90;;;;;;4246844;27;20054;-82
2022/08/18 03:50:14;;;;;;;9.48;4.70;;;19.10;99.90;;;;;;4231199;28;20511;-82
2022/08/18 03:52:15;;;;;;;13.27;4.50;;;18.90;99.90;;;;;;4213270;28;20532;-82
2022/08/18 03:54:17;;;;;;;9.75;4.10;;;19.10;99.90;;;;;;4196080;28;20098;-82
2022/08/18 03:56:23;;;;;;;10.63;4.03;;;19.10;99.90;;;;;;4231624;28;20047;-83
2022/08/18 03:58:24;;;;;;;8.63;3.67;;;19.10;99.90;;;;;;4231371;28;20144;-82
2022/08/18 04:00:30;;;;;;;14.60;4.22;;;19.10;99.90;;;;;;4231436;28;20292;-82
2022/08/18 04:02:31;;;;;;;12.23;3.80;;;19.10;99.90;;;;;;4230925;28;20050;-82
2022/08/18 04:04:32;;;;;;;12.85;3.80;;;19.10;99.90;;;;;;4231312;28;20516;-82
2022/08/18 04:06:40;;;;;;;13.75;3.38;;;19.10;99.90;;;;;;4231146;28;20511;-82
2022/08/18 04:08:41;;;;;;;11.77;3.70;;;19.10;99.90;;;;;;4230978;28;20047;-82
2022/08/18 04:10:43;;;;;;;13.25;3.83;;;19.10;99.90;;;;;;4231095;28;20476;-82
2022/08/18 04:12:43;;;;;;;10.65;4.03;;;19.10;99.90;;;;;;4246425;27;20096;-82
2022/08/18 04:14:47;;;;;;;11.57;3.88;;;19.10;99.90;;;;;;4231146;28;20047;-82
2022/08/18 04:16:48;;;;;;;11.73;3.70;;;19.10;99.90;;;;;;4246228;28;20043;-82
2022/08/18 04:18:49;;;;;;;8.85;3.75;;;19.10;99.90;;;;;;4213246;28;20048;-82
2022/08/18 04:20:49;;;;;;;5.88;3.70;;;19.00;99.90;;;;;;4230952;28;20069;-82
2022/08/18 04:22:50;;;;;;;9.13;3.72;;;19.10;99.90;;;;;;4230730;28;20050;-82
2022/08/18 04:24:51;;;;;;;9.10;3.53;;;19.10;99.90;;;;;;4230501;28;20040;-83
2022/08/18 04:26:52;;;;;;;7.88;3.30;;;19.10;99.90;;;;;;4230060;28;20098;-82
2022/08/18 04:28:54;;;;;;;9.35;4.13;;;19.10;99.90;;;;;;4230066;28;20491;-82
2022/08/18 04:30:58;;;;;;;12.10;4.55;;;19.10;99.90;;;;;;4230261;28;20061;-82
2022/08/18 04:33:01;;;;;;;12.80;3.88;;;19.10;99.90;;;;;;4230621;28;20488;-83
2022/08/18 04:35:03;;;;;;;12.70;4.05;;;19.20;99.90;;;;;;4230225;28;20441;-82
2022/08/18 04:37:03;;;;;;;16.27;3.55;;;19.20;99.90;;;;;;4225652;28;20044;-82
2022/08/18 04:39:07;;;;;;;6.82;3.33;;;19.20;99.90;;;;;;4230850;28;20047;-82
2022/08/18 04:41:09;;;;;;;9.00;3.60;;;19.20;99.90;;;;;;4230483;28;20047;-82
2022/08/18 04:43:14;;;;;;;7.20;3.42;;;19.20;99.90;;;;;;4231037;28;20077;-82
2022/08/18 04:45:15;;;;;;;6.55;3.60;;;19.20;99.90;;;;;;4230620;28;20111;-82
2022/08/18 04:47:16;;;;;;;10.48;3.78;;;19.20;99.90;;;;;;4246660;28;20111;-82
2022/08/18 04:49:19;;;;;;;10.90;3.80;;;19.20;99.90;;;;;;4234002;28;20123;-81
2022/08/18 04:51:20;;;;;;;11.10;3.70;;;19.20;99.90;;;;;;4232677;28;20434;-82
2022/08/18 04:55:48;;;;;;;9.57;3.67;;;19.20;99.90;;;;;;4230757;28;20488;-82
2022/08/18 04:57:49;;;;;;;12.15;3.35;;;19.20;99.90;;;;;;4230970;28;20046;-82
2022/08/18 04:59:51;;;;;;;11.90;4.60;;;19.20;99.90;;;;;;4231228;28;20040;-82
2022/08/18 05:01:51;;;;;;;12.65;3.85;;;19.20;99.90;;;;;;4231066;28;20036;-83
2022/08/18 05:03:53;;;;;;;10.85;4.50;;;19.20;99.90;;;;;;4230602;28;20077;-82
2022/08/18 05:05:57;;;;;;;11.98;3.60;;;19.20;99.90;;;;;;4213214;28;20044;-82
2022/08/18 05:07:57;;;;;;;8.50;4.25;;;19.20;99.90;;;;;;4212631;28;20048;-82
2022/08/18 05:09:58;;;;;;;7.65;3.65;;;19.10;99.90;;;;;;4212649;28;20047;-82
2022/08/18 05:12:04;;;;;;;10.50;4.60;;;19.20;99.90;;;;;;4233011;28;20126;-82
2022/08/18 05:14:07;;;;;;;8.70;3.92;;;19.20;99.90;;;;;;4215940;28;20047;-83
2022/08/18 05:16:08;;;;;;;11.82;4.00;;;19.20;99.90;;;;;;4233461;28;20438;-82
2022/08/18 05:18:09;;;;;;;9.93;3.70;;;19.20;99.90;;;;;;4233474;28;20055;-82
2022/08/18 05:20:10;;;;;;;11.85;4.53;;;19.20;99.90;;;;;;4236500;28;20541;-82
2022/08/18 05:22:18;;;;;;;13.00;4.15;;;19.20;99.90;;;;;;4237025;28;20039;-82
2022/08/18 05:24:20;;;;;;;11.55;3.13;;;19.20;99.90;;;;;;4215834;28;20127;-82
2022/08/18 05:26:21;;;;;;;9.98;3.58;;;19.20;99.90;;;;;;4236381;28;20051;-82
2022/08/18 05:28:22;;;;;;;11.63;3.72;;;19.20;99.90;;;;;;4233622;28;20513;-82
2022/08/18 05:30:22;;;;;;;12.05;3.40;;;19.20;99.90;;;;;;4234015;28;20525;-82
2022/08/18 05:32:23;;;;;;;10.38;3.90;;;19.20;99.90;;;;;;4233422;28;20114;-82
2022/08/18 05:34:25;;;;;;;10.35;3.33;;;19.20;99.90;;;;;;4233679;28;20058;-82
2022/08/18 05:36:49;;;;;;;8.82;3.35;;;19.30;99.90;;;;;;4215317;28;20044;-83
2022/08/18 05:38:58;;;;;;;12.35;4.15;;;19.30;99.90;;;;;;4214535;28;20047;-83
2022/08/18 05:41:09;;;;;;;8.23;3.60;;;19.30;99.90;;;;;;4214099;28;20086;-83
2022/08/18 05:43:13;;;;;;;13.75;3.88;;;19.30;99.90;;;;;;4214665;28;20077;-84
2022/08/18 05:45:17;;;;;;;10.65;3.95;;;19.30;99.90;;;;;;4232702;28;20067;-84
2022/08/18 05:47:30;;;;;;;9.57;3.58;;;19.20;99.90;;;;;;4232714;28;20058;-84
2022/08/18 05:49:32;;;;;;;11.52;3.47;;;19.30;99.90;;;;;;4232209;28;20043;-84
2022/08/18 05:51:44;;;;;;;9.60;3.42;;;19.40;99.90;;;;;;4214172;28;20642;-84
2022/08/18 05:58:34;;;;;;;9.85;3.60;;;19.40;99.90;;;;;;4232445;28;20047;-82
2022/08/18 06:00:36;;;;;;;5.15;2.95;;;19.50;99.90;;;;;;4232444;28;20396;-83
2022/08/18 06:02:54;;;;;;;8.55;2.83;;;19.50;99.90;;;;;;4231891;28;20411;-83
2022/08/18 06:05:02;;;;;;;10.18;3.35;;;19.60;99.90;;;;;;4233681;28;20047;-84
2022/08/18 06:07:07;;;;;;;9.15;3.28;;;19.60;99.90;;;;;;4232958;28;20073;-84
2022/08/18 06:09:50;;;;;;;5.55;2.67;;;19.70;99.90;;;;;;4214078;28;20126;-84
2022/08/18 06:11:57;;;;;;;5.07;2.38;;;19.70;99.90;;;;;;4196439;28;20119;-83
2022/08/18 06:13:58;;;;;;;8.30;2.50;;;19.80;99.90;;;;;;4180734;28;20059;-84
2022/08/18 06:16:31;;;;;;;9.15;2.95;;;19.80;99.90;;;;;;4197502;28;20111;-83
2022/08/18 06:18:41;;;;;;;10.07;3.10;;;19.80;99.90;;;;;;4231918;28;20088;-83
2022/08/18 06:20:58;;;;;;;7.28;3.20;;;19.90;99.90;;;;;;4231446;28;20044;-83
2022/08/18 06:23:36;;;;;;;7.05;2.65;;;19.90;99.90;;;;;;4213469;28;20492;-83
2022/08/18 06:26:03;;;;;;;13.63;3.38;;;19.90;99.90;;;;;;4231995;28;20054;-82
2022/08/18 06:28:15;;;;;;;12.00;2.53;;;19.90;99.90;;;;;;4220087;28;20097;-82
2022/08/18 06:30:40;;;;;;;12.70;3.00;;;19.90;99.90;;;;;;4215130;28;20455;-83
2022/08/18 06:32:51;;;;;;;9.23;2.83;;;19.80;99.90;;;;;;4241704;27;20039;-83
2022/08/18 06:35:17;;;;;;;5.10;1.90;;;19.80;99.90;;;;;;4231234;28;20047;-83
2022/08/18 06:38:37;;;;;;;6.93;2.13;;;19.80;99.90;;;;;;4244931;27;20058;-82
2022/08/18 06:39:56;;;;;;;9.30;2.33;;;19.80;99.90;;;;;;4206829;28;20531;-82
2022/08/18 06:41:56;;;;;;;9.40;2.90;;;19.80;99.90;;;;;;4236640;27;20042;-82
2022/08/18 06:44:08;;;;;;;14.88;2.67;;;19.80;99.90;;;;;;4230949;28;20043;-83
2022/08/18 06:46:16;;;;;;;9.32;2.15;;;19.80;99.90;;;;;;4214013;28;20043;-82
2022/08/18 06:48:49;;;;;;;18.50;2.75;;;19.80;99.90;;;;;;4206625;28;20049;-83
2022/08/18 06:50:59;;;;;;;11.73;2.28;;;19.80;99.90;;;;;;4209291;28;20393;-82
2022/08/18 06:53:03;;;;;;;14.23;2.47;;;19.80;99.90;;;;;;4219692;28;20074;-82
2022/08/18 06:55:16;;;;;;;7.72;2.60;;;19.80;99.90;;;;;;4219825;28;20403;-82
2022/08/18 06:57:29;;;;;;;7.38;2.15;;;19.80;99.90;;;;;;4208879;28;20047;-83
2022/08/18 06:59:33;;;;;;;8.20;2.38;;;19.80;99.90;;;;;;4232911;27;20544;-84
2022/08/18 07:01:34;;;;;;;7.22;2.00;;;19.80;99.90;;;;;;4234287;27;20054;-84
2022/08/18 07:03:38;;;;;;;8.38;2.03;;;19.80;99.90;;;;;;4200518;28;20064;-83
2022/08/18 07:06:07;;;;;;;8.55;1.75;;;19.80;99.90;;;;;;4239535;27;20494;-83
2022/08/18 07:08:28;;;;;;;8.30;1.80;;;19.80;99.90;;;;;;4211015;28;20044;-83
2022/08/18 07:10:35;;;;;;;5.78;1.77;;;19.80;99.90;;;;;;4229599;27;20036;-83
2022/08/18 07:12:36;;;;;;;8.45;1.98;;;19.80;99.90;;;;;;4231077;27;20046;-83
2022/08/18 07:14:50;;;;;;;9.18;3.17;;;19.80;99.90;;;;;;4216551;28;20048;-83
2022/08/18 07:17:06;;;;;;;11.95;2.03;;;19.80;99.90;;;;;;4211831;28;20175;-83
2022/08/18 07:19:19;;;;;;;9.38;1.67;;;19.80;99.90;;;;;;4210977;28;20431;-83
2022/08/18 07:21:30;;;;;;;10.85;2.08;;;19.80;99.90;;;;;;4196460;28;20044;-83
2022/08/18 07:23:37;;;;;;;10.82;2.03;;;19.80;99.90;;;;;;4233481;27;20039;-83
2022/08/18 07:25:41;;;;;;;10.63;1.70;;;19.80;99.90;;;;;;4236794;27;20429;-82
2022/08/18 07:27:47;;;;;;;9.10;2.35;;;19.80;99.90;;;;;;4254076;27;20073;-83
2022/08/18 07:29:58;;;;;;;6.30;1.60;;;19.80;99.90;;;;;;4239791;27;20082;-83
2022/08/18 07:32:03;;;;;;;8.55;1.60;;;19.90;99.90;;;;;;4241696;27;20392;-82
2022/08/18 07:34:47;;;;;;;10.10;2.10;;;19.90;99.90;;;;;;4230067;27;20080;-82
2022/08/18 07:37:02;;;;;;;8.13;1.80;;;19.90;99.90;;;;;;4181762;28;20056;-83
2022/08/18 07:39:16;;;;;;;7.07;1.58;;;19.90;99.90;;;;;;4158340;28;20042;-83
2022/08/18 07:41:36;;;;;;;6.03;1.92;;;19.90;99.90;;;;;;4156630;28;20138;-83
2022/08/18 07:44:19;;;;;;;6.60;1.55;;;19.90;99.90;;;;;;4217753;28;20075;-83
2022/08/18 07:46:28;;;;;;;5.60;1.63;;;20.00;99.90;;;;;;4202122;28;20039;-83
2022/08/18 07:48:32;;;;;;;11.45;2.08;;;20.10;99.90;;;;;;4216870;28;20114;-83
2022/08/18 07:50:46;;;;;;;6.00;1.98;;;20.20;99.90;;;;;;4229240;28;20131;-83
2022/08/18 07:53:00;;;;;;;7.32;1.70;;;20.30;99.90;;;;;;4229406;28;20039;-83
2022/08/18 07:55:09;;;;;;;4.53;1.80;;;20.40;99.90;;;;;;4234884;27;20387;-83
2022/08/18 07:57:32;;;;;;;7.20;2.03;;;20.40;99.90;;;;;;4232654;27;20045;-82
2022/08/18 07:59:47;;;;;;;5.78;1.65;;;20.30;99.90;;;;;;4214849;28;20508;-82
2022/08/18 08:02:17;;;;;;;5.97;1.30;;;20.30;99.90;;;;;;4226392;27;20044;-82
2022/08/18 08:04:20;;;;;;;6.15;1.38;;;20.40;99.90;;;;;;4226926;27;20108;-83
2022/08/18 08:06:38;;;;;;;9.60;2.20;;;20.40;99.90;;;;;;4231700;28;20164;-83
2022/08/18 08:08:50;;;;;;;7.78;1.98;;;20.40;99.90;;;;;;4231917;28;20589;-82
2022/08/18 08:11:00;;;;;;;3.90;1.23;;;20.40;99.90;;;;;;4231089;28;20047;-83
2022/08/18 08:13:15;;;;;;;6.28;0.95;;;20.50;99.90;;;;;;4230143;28;20044;-83
2022/08/18 08:15:38;;;;;;;3.60;1.35;;;20.50;99.90;;;;;;4239407;28;20047;-82
2022/08/18 08:17:56;;;;;;;4.03;1.30;;;20.50;99.90;;;;;;4239765;28;20114;-83
2022/08/18 08:20:18;;;;;;;4.43;0.98;;;20.50;99.90;;;;;;4215115;28;20050;-82
2022/08/18 08:22:30;;;;;;;7.05;1.08;;;20.50;99.90;;;;;;4228692;28;20044;-82
2022/08/18 08:24:40;;;;;;;3.33;1.20;;;20.60;99.90;;;;;;4226317;28;20067;-82
2022/08/18 08:27:00;;;;;;;2.92;1.25;;;20.60;99.90;;;;;;4227877;28;20047;-83
2022/08/18 08:29:20;;;;;;;2.33;0.90;;;20.70;99.90;;;;;;4231568;28;20515;-83
2022/08/18 08:31:45;;;;;;;4.57;1.10;;;20.60;99.90;;;;;;4217505;28;20511;-83
2022/08/18 08:33:53;;;;;;;6.72;1.30;;;20.50;99.90;;;;;;4234658;28;20047;-82
2022/08/18 08:36:12;;;;;;;4.28;1.27;;;20.50;99.90;;;;;;4239406;28;20504;-82
2022/08/18 08:38:19;;;;;;;5.72;1.50;;;20.50;99.90;;;;;;4225986;28;20487;-81
2022/08/18 08:40:28;;;;;;;2.05;1.23;;;20.50;99.90;;;;;;4217007;28;20044;-82
2022/08/18 08:43:00;;;;;;;3.08;1.23;;;20.60;99.90;;;;;;4226321;28;20411;-82
2022/08/18 08:45:12;;;;;;;7.13;1.15;;;20.70;99.90;;;;;;4225111;28;20448;-82
2022/08/18 08:47:31;;;;;;;4.53;1.20;;;20.80;99.90;;;;;;4221267;28;20052;-83
2022/08/18 08:49:51;;;;;;;3.95;1.08;;;20.90;99.90;;;;;;4226470;28;20047;-82
2022/08/18 08:51:59;;;;;;;6.57;1.20;;;20.90;99.90;;;;;;4188214;28;20496;-82
2022/08/18 08:54:16;;;;;;;6.22;1.20;;;20.80;99.90;;;;;;4220850;28;20036;-82
2022/08/18 08:56:28;;;;;;;4.88;1.23;;;20.90;99.90;;;;;;4231024;28;20044;-82
2022/08/18 08:58:39;;;;;;;3.83;0.93;;;20.90;99.90;;;;;;4232774;28;20092;-82
2022/08/18 09:00:41;;;;;;;2.10;1.20;;;20.90;99.90;;;;;;4228998;28;20419;-81
2022/08/18 09:03:05;;;;;;;1.65;1.00;;;20.90;99.90;;;;;;4229232;28;20081;-81
2022/08/18 09:05:18;;;;;;;7.57;1.30;;;20.90;99.90;;;;;;4215046;28;20048;-82
2022/08/18 09:07:25;;;;;;;2.15;1.05;;;21.00;99.90;;;;;;4229815;28;20043;-81
2022/08/18 09:09:28;;;;;;;3.60;1.30;;;21.10;99.90;;;;;;4214134;28;20086;-82
2022/08/18 09:11:44;;;;;;;4.80;1.20;;;21.20;99.90;;;;;;4233151;28;20040;-82
2022/08/18 09:14:06;;;;;;;8.57;1.23;;;21.30;99.90;;;;;;4208555;28;20455;-83
2022/08/18 09:16:34;;;;;;;8.10;1.23;;;21.30;99.90;;;;;;4198334;28;20052;-82
2022/08/18 09:18:52;;;;;;;1.23;0.90;;;21.20;99.90;;;;;;4216476;28;20051;-82
2022/08/18 09:21:14;;;;;;;4.67;1.63;;;21.20;99.90;;;;;;4221896;28;20429;-82
2022/08/18 09:23:22;;;;;;;2.88;0.98;;;21.30;99.90;;;;;;4214525;28;20293;-84
2022/08/18 09:25:37;;;;;;;3.88;1.00;;;21.20;99.90;;;;;;4232959;28;20480;-83
2022/08/18 09:27:41;;;;;;;3.83;1.00;;;21.20;99.90;;;;;;4233313;28;20047;-83
2022/08/18 09:29:48;;;;;;;3.92;1.33;;;21.10;99.90;;;;;;4234153;28;20043;-83
2022/08/18 09:32:21;;;;;;;5.47;1.20;;;21.10;99.90;;;;;;4218337;28;20519;-83
2022/08/18 09:34:44;;;;;;;2.45;1.00;;;21.20;99.90;;;;;;4217438;28;20047;-83
2022/08/18 09:36:53;;;;;;;5.13;1.55;;;21.20;99.90;;;;;;4231893;28;20044;-83
2022/08/18 09:41:44;;;;;;;3.72;1.30;;;21.60;99.90;;;;;;4216604;28;20048;-83
2022/08/18 09:44:20;;;;;;;4.07;1.23;;;21.90;99.90;;;;;;4215990;28;20040;-83
2022/08/18 09:46:40;;;;;;;4.60;1.15;;;22.10;99.90;;;;;;4197938;28;20057;-82
2022/08/18 09:48:43;;;;;;;5.50;1.30;;;22.30;99.90;;;;;;4218469;28;20051;-84
2022/08/18 09:51:00;;;;;;;4.05;1.00;;;22.40;99.90;;;;;;4219066;28;20532;-83
2022/08/18 09:53:30;;;;;;;4.78;0.90;;;22.40;99.90;;;;;;4214908;28;20130;-83
2022/08/18 09:55:31;;;;;;;5.88;1.50;;;22.70;99.90;;;;;;4231435;28;20044;-82
2022/08/18 09:57:34;;;;;;;4.18;0.93;;;23.00;99.90;;;;;;4233429;28;20131;-82
2022/08/18 09:59:35;;;;;;;4.13;1.08;;;23.10;99.90;;;;;;4233088;28;20051;-82
2022/08/18 10:01:38;;;;;;;2.83;1.20;;;23.20;99.90;;;;;;4232486;28;20150;-82
2022/08/18 10:03:39;;;;;;;2.65;1.05;;;23.20;99.90;;;;;;4232339;28;20119;-83
2022/08/18 10:05:54;;;;;;;5.28;1.10;;;23.20;99.90;;;;;;4232666;28;20055;-82
2022/08/18 10:08:15;;;;;;;3.10;0.70;;;23.20;99.90;;;;;;4232629;28;20111;-83
2022/08/18 10:10:27;;;;;;;4.00;1.23;;;23.20;99.90;;;;;;4202803;28;20816;-83
2022/08/18 10:12:56;;;;;;;3.03;1.02;;;23.10;99.90;;;;;;4215676;28;20040;-84
2022/08/18 10:15:17;;;;;;;3.67;1.20;;;23.10;99.90;;;;;;4231485;28;20043;-83
2022/08/18 10:17:18;;;;;;;1.17;0.75;;;23.10;99.90;;;;;;4234995;28;20047;-83
2022/08/18 10:19:28;;;;;;;2.70;1.00;;;23.00;99.90;;;;;;4235414;28;20780;-83
2022/08/18 10:21:55;;;;;;;3.22;0.70;;;22.90;99.90;;;;;;4234417;28;20043;-84
2022/08/18 10:24:11;;;;;;;3.47;1.00;;;22.90;99.90;;;;;;4233224;28;20039;-83
2022/08/18 10:26:31;;;;;;;8.73;0.82;;;22.70;99.90;;;;;;4235031;28;20074;-83
2022/08/18 10:28:54;;;;;;;7.13;1.05;;;22.50;99.90;;;;;;4250925;27;20043;-83
2022/08/18 10:31:05;;;;;;;6.05;1.10;;;22.50;99.90;;;;;;4214564;28;20044;-84
2022/08/18 10:33:09;;;;;;;1.98;1.00;;;22.50;99.90;;;;;;4214796;28;20127;-85
2022/08/18 10:35:35;;;;;;;2.92;1.00;;;22.60;99.90;;;;;;4214899;28;20044;-84
2022/08/18 10:37:43;;;;;;;5.25;1.10;;;22.70;99.90;;;;;;4232863;28;20399;-83
2022/08/18 10:39:50;;;;;;;2.45;1.13;;;22.60;99.90;;;;;;4233175;28;20098;-83
2022/08/18 10:42:04;;;;;;;4.70;1.20;;;22.60;99.90;;;;;;4231655;28;20047;-83
2022/08/18 10:44:06;;;;;;;4.32;1.20;;;22.50;99.90;;;;;;4216085;28;20135;-83
2022/08/18 10:46:20;;;;;;;3.28;1.23;;;22.50;99.90;;;;;;4232566;28;20052;-84
2022/08/18 10:48:31;;;;;;;1.67;1.00;;;22.50;99.90;;;;;;4233150;28;20433;-83
2022/08/18 10:50:41;;;;;;;4.57;1.30;;;22.40;99.90;;;;;;4232334;28;20052;-83
2022/08/18 10:53:03;;;;;;;4.05;0.95;;;22.30;99.90;;;;;;4248524;27;20080;-83
2022/08/18 10:55:11;;;;;;;4.28;1.20;;;22.30;99.90;;;;;;4213590;28;20109;-84
2022/08/18 10:57:39;;;;;;;2.58;0.90;;;22.20;99.90;;;;;;4231911;28;20084;-85
2022/08/18 10:59:58;;;;;;;5.95;1.77;;;22.20;99.90;;;;;;4225616;28;20515;-84
2022/08/18 11:02:33;;;;;;;1.30;0.90;;;22.20;99.90;;;;;;4232303;28;20050;-84
2022/08/18 11:04:46;;;;;;;2.38;1.20;;;22.10;99.90;;;;;;4213853;28;20036;-83
2022/08/18 11:06:55;;;;;;;4.05;1.50;;;22.00;99.90;;;;;;4240172;27;20048;-83
2022/08/18 11:08:59;;;;;;;2.42;1.00;;;22.00;99.90;;;;;;4219386;28;20126;-83
2022/08/18 11:11:06;;;;;;;1.92;1.30;;;22.10;99.90;;;;;;4235906;28;20039;-83
2022/08/18 11:13:30;;;;;;;3.58;1.10;;;22.10;99.90;;;;;;4227289;28;20032;-84
2022/08/18 11:15:58;;;;;;;2.15;1.10;;;22.10;99.90;;;;;;4232077;28;20396;-82
2022/08/18 11:18:31;;;;;;;4.93;1.27;;;22.10;99.90;;;;;;4225930;27;20114;-83